Hlavní strana
METAR-TAF:

METAR-TAF

Letiště :

Timimoun, Alžírsko

zeměpisná šířka: 29-15N, zeměpisná délka: 000-17E, výška: 312 m

Aktuální stav počasí

Zpráva byla vytvořena před 24 minutami, v 23:00 UTC
Severovýchodní vítr 13 kt
Teplota 16°C
Vlhkost vzduchu 36%
Tlak 1021 hPa
Viditelnost: 2000 m
zákal

METAR: DAUT 242300Z 04013KT 2000 HZ NSC 16/01 Q1021

Čas: 00:24 (23:24 UTC)

Předpověď počasí

Zpráva byla vytvořena před 3 hodinami a 24 minutami, v 20:00 UTC
Předpověď platná od 24 v 21 UTC do 25 v 06 UTC
Severovýchodní vítr 16 kt
Viditelnost: 2000 m
Polojasno ve výšce 4600 ft
nízko zvířený písek
Dočasný
od 24 v 21 UTC do 24 v 24 UTC
Východoseverovýchodní vítr 16 kt s nárazy do 30 kt
Viditelnost: 1000 m
Skoro jasno ve výšce 4000 ft, Vertikální cumulus.
zvířený písek

TAF: DAUT 242000Z 2421/2506 04016KT 2000 DRSA SCT046 TEMPO 2421/2424 06016G30KT 1000 BLSA FEW040TCU

Stav a předpovědi počasí z více než 4 000 letišť (zprávy METAR a TAF).

Červené a žluté tečky na mapě představují dostupné meteorologické stanice.

Když kurzor umístíte na tečku, zobrazí se název stanice.

Pak kliknutím zobrazíte stav a předpověď počasí.

Chcete-li změnit mapu, kliknutím na zelené tlačítko se znaménkem +mapu přiblížíte, kliknutím na zelené tlačítko se znaménkem – mapu oddálíte a kliknutím na zelené šipky přejdete na sousední mapy.


METAR-TAF: